AGROMETEOROLOŠKI PORTAL

vinorodna pokrajina

Temelj dobrega kmetovanja

Pregled podatkov za lokacijo Gabrska Gora, meteorološka postaja 45205

Pregled senzorjev na lokaciji

ID Ime Zadnja
vrednost
Datum in čas
meritve
(lokalni čas)
Tip
senzorja
6830 Omočenost lista (1,5 m) (U) 8 U 25.9.2022 22:00 A730WET
6831 Padavine (mm) 0 mm 25.9.2022 22:00 Generic 0.2 mm
6833 Relativna zračna vlaga (2 m) (%RH) 100 %RH 25.9.2022 22:00 50YA
6832 Temperatura (2 m) (°C) 11,9 °C 25.9.2022 22:00 50YA

Pregled podatkov zadnjih 24 ur

Zap.
št.
Datum in čas
(lokalni čas)
Gabrska Gora
Omočenost
lista
(1,5
m)
Padavine Relativna
zračna
vlaga
(2
m)
Temperatura
(2
m)
1 25.9.2022 22:00 8 0 100 11,9
2 25.9.2022 21:30 9 0 100 12,1
3 25.9.2022 21:00 9 0 100 12,2
4 25.9.2022 20:30 8 0 100 12,3
5 25.9.2022 20:00 8 0 100 12,3
6 25.9.2022 19:30 8 0,2 100 12,3
7 25.9.2022 19:00 7 0 100 12,4
8 25.9.2022 18:30 6 1,8 100 12,5
9 25.9.2022 18:00 7 4,4 100 12,5
10 25.9.2022 17:30 9 0,4 100 12,6
11 25.9.2022 17:00 9 0,4 100 12,6
12 25.9.2022 16:30 9 0,2 99,8 12,7
13 25.9.2022 16:00 9 0,4 99 12,7
14 25.9.2022 15:30 9 0,6 98,6 12,6
15 25.9.2022 15:00 9 0,6 98 12,4
16 25.9.2022 14:30 10 0 97,4 12,4
17 25.9.2022 14:00 10 0,2 96,5 12,3
18 25.9.2022 13:30 9 0,2 96 12,4
19 25.9.2022 13:00 10 0 96,2 12,5
20 25.9.2022 12:30 9 0,2 98,1 11,9
21 25.9.2022 12:00 6 0 97,8 11,8
22 25.9.2022 11:30 8 0,2 98,2 11,6
23 25.9.2022 11:00 4 0 97,8 11,8
24 25.9.2022 10:30 2 0 99,9 11,1
25 25.9.2022 10:00 5 0 100 10,8
26 25.9.2022 09:30 4 0 97,6 10,7
27 25.9.2022 09:00 3 0,2 97 10,8
28 25.9.2022 08:30 4 0 99 10,5
29 25.9.2022 08:00 8 0 100 10,4
30 25.9.2022 07:30 8 0,2 100 10,4
31 25.9.2022 07:00 7 0,4 100 10,5
32 25.9.2022 06:30 8 0,2 100 10,6
33 25.9.2022 06:00 8 0 100 10,6
34 25.9.2022 05:30 8 0 100 10,8
35 25.9.2022 05:00 7 0,6 99,7 10,9
36 25.9.2022 04:30 9 0,2 98,6 11
37 25.9.2022 04:00 10 0 97,5 11,1
38 25.9.2022 03:30 10 0 94,5 11,4
39 25.9.2022 03:00 10 0 94,5 11,6
40 25.9.2022 02:30 10 0 95,8 11,6
41 25.9.2022 02:00 10 0 96,5 11,8
42 25.9.2022 01:30 10 0 97,7 11,4
43 25.9.2022 01:00 10 0 95,8 11,5
44 25.9.2022 00:30 10 0 96,1 11,8
45 25.9.2022 00:00 10 0 96,3 11,7
46 24.9.2022 23:30 10 0 94,6 12